Time;durP1;ratioP1;P1;durP2;ratioP2;P2;SDS_P1;SDS_P2;PMS_P1;PMS_P2;Temp;Humidity;BMP_temperature;BMP_pressure;BME280_temperature;BME280_humidity;BME280_pressure;Samples;Min_cycle;Max_cycle;Signal;HPM_P1;HPM_P2
2021/12/25 00:00:15;;;;;;;0.83;0.63;;;;;;;;;;4967666;28;20237;-71
2021/12/25 00:02:43;;;;;;;0.00;0.00;;;;;;;;;;4963146;28;20214;-72
2021/12/25 00:05:11;;;;;;;0.60;0.60;;;;;;;;;;4965478;28;20210;-70
2021/12/25 00:07:40;;;;;;;1.60;1.50;;;;;;;;;;4963955;28;20198;-71
2021/12/25 00:10:09;;;;;;;0.30;0.30;;;;;;;;;;4962279;28;20220;-71
2021/12/25 00:12:36;;;;;;;0.73;0.70;;;;;;;;;;4963229;28;20198;-70
2021/12/25 00:15:04;;;;;;;0.40;0.40;;;;;;;;;;4964850;28;20213;-71
2021/12/25 00:17:32;;;;;;;1.93;1.83;;;;;;;;;;4963382;28;20233;-70
2021/12/25 00:20:00;;;;;;;0.63;0.63;;;;;;;;;;4963083;28;20280;-71
2021/12/25 00:22:27;;;;;;;0.00;0.00;;;;;;;;;;4963722;28;20595;-70
2021/12/25 00:24:56;;;;;;;0.13;0.13;;;;;;;;;;4966743;28;20202;-70
2021/12/25 00:30:22;;;;;;;2.03;1.93;;;;;;;;;;4960522;28;20623;-70
2021/12/25 00:32:58;;;;;;;0.00;0.00;;;;;;;;;;4962392;28;20660;-70
2021/12/25 00:35:26;;;;;;;0.87;0.87;;;;;;;;;;4964500;28;20217;-71
2021/12/25 00:37:53;;;;;;;1.27;1.17;;;;;;;;;;4961787;28;20663;-71
2021/12/25 00:40:22;;;;;;;1.70;1.60;;;;;;;;;;4962986;28;20252;-71
2021/12/25 00:42:49;;;;;;;1.60;1.50;;;;;;;;;;4963992;28;20723;-70
2021/12/25 00:45:17;;;;;;;1.80;1.20;;;;;;;;;;4963834;28;20215;-71
2021/12/25 00:47:44;;;;;;;2.83;2.63;;;;;;;;;;4966743;28;20198;-70
2021/12/25 00:50:12;;;;;;;0.60;0.60;;;;;;;;;;4967213;28;20213;-70
2021/12/25 00:52:39;;;;;;;0.47;0.47;;;;;;;;;;4965666;28;20214;-70
2021/12/25 00:55:08;;;;;;;2.17;1.17;;;;;;;;;;4969956;28;20253;-70
2021/12/25 00:57:40;;;;;;;3.63;2.83;;;;;;;;;;4966752;28;20205;-70
2021/12/25 01:00:10;;;;;;;2.87;2.30;;;;;;;;;;4965257;28;20730;-71
2021/12/25 01:02:39;;;;;;;1.80;1.27;;;;;;;;;;4968368;28;20217;-70
2021/12/25 01:05:07;;;;;;;1.13;1.03;;;;;;;;;;4965319;28;20214;-70
2021/12/25 01:07:35;;;;;;;0.90;0.87;;;;;;;;;;4962561;28;20660;-71
2021/12/25 01:10:04;;;;;;;2.47;2.27;;;;;;;;;;4964311;28;20218;-71
2021/12/25 01:12:41;;;;;;;0.63;0.63;;;;;;;;;;4966213;28;20210;-70
2021/12/25 01:15:12;;;;;;;0.50;0.50;;;;;;;;;;4957779;28;20292;-71
2021/12/25 01:18:05;;;;;;;1.00;1.00;;;;;;;;;;4965076;28;20570;-69
2021/12/25 01:21:00;;;;;;;1.20;1.17;;;;;;;;;;4960728;28;20229;-71
2021/12/25 01:29:27;;;;;;;0.93;0.67;;;;;;;;;;4946532;28;20679;-69
2021/12/25 01:32:17;;;;;;;0.00;0.00;;;;;;;;;;4962480;28;20206;-71
2021/12/25 01:37:38;;;;;;;2.77;1.90;;;;;;;;;;4966733;28;20202;-71
2021/12/25 01:40:22;;;;;;;0.93;0.93;;;;;;;;;;4961927;28;20234;-70
2021/12/25 01:48:18;;;;;;;1.03;0.93;;;;;;;;;;4962859;28;20956;-72
2021/12/25 01:50:45;;;;;;;0.97;0.50;;;;;;;;;;4961427;28;20209;-71
2021/12/25 01:53:13;;;;;;;1.30;1.17;;;;;;;;;;4963818;28;20213;-70
2021/12/25 01:55:41;;;;;;;1.23;1.13;;;;;;;;;;4962817;28;20226;-70
2021/12/25 01:58:09;;;;;;;1.67;1.57;;;;;;;;;;4962458;28;20216;-70
2021/12/25 02:00:37;;;;;;;1.03;1.03;;;;;;;;;;4962654;28;20226;-71
2021/12/25 02:03:06;;;;;;;1.03;1.00;;;;;;;;;;4964524;28;20258;-71
2021/12/25 02:05:35;;;;;;;0.43;0.43;;;;;;;;;;4963174;28;20198;-71
2021/12/25 02:08:02;;;;;;;1.43;1.33;;;;;;;;;;4962672;28;20206;-70
2021/12/25 02:10:29;;;;;;;4.90;2.80;;;;;;;;;;4960654;28;20694;-71
2021/12/25 02:12:57;;;;;;;0.83;0.83;;;;;;;;;;4966578;28;20742;-71
2021/12/25 02:15:27;;;;;;;5.57;1.03;;;;;;;;;;4961681;28;20213;-72
2021/12/25 02:18:08;;;;;;;1.50;1.40;;;;;;;;;;4961172;28;20748;-72
2021/12/25 02:20:44;;;;;;;2.37;2.27;;;;;;;;;;4962345;28;20287;-72
2021/12/25 02:23:15;;;;;;;2.43;2.30;;;;;;;;;;4965785;28;20285;-72
2021/12/25 02:25:42;;;;;;;1.73;1.60;;;;;;;;;;4960408;28;20656;-72
2021/12/25 02:28:11;;;;;;;1.20;1.17;;;;;;;;;;4967620;28;20202;-71
2021/12/25 02:30:39;;;;;;;1.67;0.93;;;;;;;;;;4961771;28;20898;-71
2021/12/25 02:33:06;;;;;;;1.77;1.67;;;;;;;;;;4963326;28;20221;-71
2021/12/25 02:35:34;;;;;;;0.77;0.77;;;;;;;;;;4962349;28;20874;-71
2021/12/25 02:38:03;;;;;;;4.20;3.50;;;;;;;;;;4969508;28;20213;-71
2021/12/25 02:40:30;;;;;;;3.87;3.57;;;;;;;;;;4963668;28;20234;-72
2021/12/25 02:42:58;;;;;;;2.83;1.37;;;;;;;;;;4964777;28;20206;-71
2021/12/25 02:45:25;;;;;;;2.03;1.33;;;;;;;;;;4970694;28;20202;-71
2021/12/25 02:47:55;;;;;;;1.23;1.13;;;;;;;;;;4967489;28;20202;-71
2021/12/25 02:50:26;;;;;;;1.30;1.30;;;;;;;;;;4969652;28;20222;-71
2021/12/25 02:52:54;;;;;;;0.43;0.43;;;;;;;;;;4965682;28;20217;-71
2021/12/25 02:55:23;;;;;;;0.90;0.90;;;;;;;;;;4959822;28;20230;-71
2021/12/25 02:57:52;;;;;;;2.07;1.43;;;;;;;;;;4967227;28;20286;-71
2021/12/25 03:00:20;;;;;;;2.17;1.90;;;;;;;;;;4967775;28;20230;-72
2021/12/25 03:02:47;;;;;;;12.90;6.90;;;;;;;;;;4969338;28;20200;-71
2021/12/25 03:05:15;;;;;;;2.73;2.53;;;;;;;;;;4967992;28;20256;-71
2021/12/25 03:07:43;;;;;;;2.13;1.97;;;;;;;;;;4968699;28;21654;-74
2021/12/25 03:10:11;;;;;;;3.63;2.70;;;;;;;;;;4969191;28;20663;-71
2021/12/25 03:12:50;;;;;;;0.20;0.17;;;;;;;;;;4963833;28;20207;-72
2021/12/25 03:15:27;;;;;;;0.37;0.37;;;;;;;;;;4965143;28;20211;-72
2021/12/25 03:17:54;;;;;;;5.67;3.00;;;;;;;;;;4967210;28;20335;-71
2021/12/25 03:20:21;;;;;;;2.50;1.80;;;;;;;;;;4961665;28;20229;-72
2021/12/25 03:22:49;;;;;;;1.40;1.30;;;;;;;;;;4965597;28;20305;-72
2021/12/25 03:25:17;;;;;;;3.03;1.50;;;;;;;;;;4965416;28;20207;-71
2021/12/25 03:27:47;;;;;;;4.67;2.60;;;;;;;;;;4963182;28;20198;-72
2021/12/25 03:30:16;;;;;;;1.30;1.20;;;;;;;;;;4961409;28;20202;-72
2021/12/25 03:32:43;;;;;;;0.97;0.67;;;;;;;;;;4961230;28;20209;-72
2021/12/25 03:35:10;;;;;;;0.57;0.57;;;;;;;;;;4964175;28;20206;-71
2021/12/25 03:37:38;;;;;;;0.77;0.77;;;;;;;;;;4960298;28;21955;-71
2021/12/25 03:40:05;;;;;;;2.53;1.60;;;;;;;;;;4963277;28;20241;-72
2021/12/25 03:42:33;;;;;;;0.53;0.53;;;;;;;;;;4964051;28;20668;-72
2021/12/25 03:45:02;;;;;;;0.93;0.63;;;;;;;;;;4960765;28;20217;-72
2021/12/25 03:47:34;;;;;;;1.30;0.80;;;;;;;;;;4963961;28;20206;-72
2021/12/25 03:53:10;;;;;;;0.53;0.53;;;;;;;;;;4962851;28;20273;-72
2021/12/25 03:58:27;;;;;;;2.20;2.00;;;;;;;;;;4965540;28;20225;-71
2021/12/25 04:01:01;;;;;;;2.00;1.27;;;;;;;;;;4966029;28;20352;-74
2021/12/25 04:03:42;;;;;;;1.27;1.17;;;;;;;;;;4962252;28;20269;-73
2021/12/25 04:06:10;;;;;;;2.93;2.00;;;;;;;;;;4964133;28;20762;-72
2021/12/25 04:08:42;;;;;;;1.87;1.77;;;;;;;;;;4961051;28;20222;-72
2021/12/25 04:11:14;;;;;;;1.77;1.67;;;;;;;;;;4964949;28;20213;-74
2021/12/25 04:13:41;;;;;;;0.60;0.60;;;;;;;;;;4961526;28;20214;-72
2021/12/25 04:16:10;;;;;;;0.73;0.73;;;;;;;;;;4968068;28;20210;-72
2021/12/25 04:18:38;;;;;;;0.70;0.70;;;;;;;;;;4961759;28;20206;-72
2021/12/25 04:21:05;;;;;;;1.37;1.07;;;;;;;;;;4959850;28;20822;-72
2021/12/25 04:23:35;;;;;;;0.47;0.47;;;;;;;;;;4962532;28;20264;-72
2021/12/25 04:26:03;;;;;;;2.07;1.97;;;;;;;;;;4963554;28;20199;-73
2021/12/25 04:28:38;;;;;;;0.57;0.40;;;;;;;;;;4964788;28;20210;-72
2021/12/25 04:31:25;;;;;;;1.97;1.83;;;;;;;;;;4962508;28;20844;-74
2021/12/25 05:01:42;;;;;;;4.73;2.77;;;;;;;;;;4959986;28;20210;-73
2021/12/25 05:01:48;;;;;;;1.17;1.17;;;;;;;;;;4923207;28;20233;-74
2021/12/25 05:04:20;;;;;;;2.10;1.20;;;;;;;;;;4962412;28;20261;-73
2021/12/25 05:06:49;;;;;;;1.83;1.73;;;;;;;;;;4959616;28;20755;-73
2021/12/25 05:09:16;;;;;;;2.17;1.97;;;;;;;;;;4962385;28;20202;-72
2021/12/25 05:11:44;;;;;;;1.27;0.87;;;;;;;;;;4960322;28;20198;-72
2021/12/25 05:14:11;;;;;;;3.40;2.50;;;;;;;;;;4964840;28;20206;-74
2021/12/25 05:16:39;;;;;;;0.87;0.73;;;;;;;;;;4961130;28;20201;-73
2021/12/25 05:19:06;;;;;;;3.70;2.33;;;;;;;;;;4959720;28;20675;-74
2021/12/25 05:21:33;;;;;;;2.43;1.53;;;;;;;;;;4959234;28;20679;-73
2021/12/25 05:24:05;;;;;;;1.40;1.30;;;;;;;;;;4963414;28;20210;-74
2021/12/25 05:26:32;;;;;;;1.03;0.87;;;;;;;;;;4965391;28;20675;-74
2021/12/25 05:29:01;;;;;;;1.63;1.40;;;;;;;;;;4966371;28;20579;-74
2021/12/25 05:31:29;;;;;;;0.27;0.27;;;;;;;;;;4965328;28;20583;-74
2021/12/25 05:33:57;;;;;;;1.57;1.40;;;;;;;;;;4965984;28;20217;-74
2021/12/25 05:36:27;;;;;;;2.17;1.60;;;;;;;;;;4965458;28;20217;-74
2021/12/25 05:38:57;;;;;;;1.10;0.83;;;;;;;;;;4967513;28;20615;-74
2021/12/25 05:41:26;;;;;;;2.37;1.67;;;;;;;;;;4964867;28;20233;-73
2021/12/25 05:43:54;;;;;;;1.57;1.47;;;;;;;;;;4967687;28;20205;-73
2021/12/25 05:46:22;;;;;;;1.53;1.43;;;;;;;;;;4967374;28;20205;-74
2021/12/25 05:48:50;;;;;;;3.43;1.10;;;;;;;;;;4965970;28;20214;-74
2021/12/25 05:51:18;;;;;;;3.23;1.73;;;;;;;;;;4965920;28;20237;-74
2021/12/25 05:53:46;;;;;;;1.73;1.53;;;;;;;;;;4965394;28;20209;-74
2021/12/25 05:56:13;;;;;;;1.40;1.07;;;;;;;;;;4961645;28;20209;-73
2021/12/25 05:58:42;;;;;;;2.10;1.80;;;;;;;;;;4959377;28;20206;-73
2021/12/25 06:01:11;;;;;;;2.13;2.03;;;;;;;;;;4960253;28;21011;-74
2021/12/25 06:03:39;;;;;;;0.93;0.87;;;;;;;;;;4959692;28;20198;-73
2021/12/25 06:06:07;;;;;;;1.37;1.27;;;;;;;;;;4961883;28;21589;-74
2021/12/25 06:08:35;;;;;;;3.87;2.47;;;;;;;;;;4961855;28;20217;-73
2021/12/25 06:11:03;;;;;;;1.50;1.40;;;;;;;;;;4960312;28;20890;-74
2021/12/25 06:13:31;;;;;;;1.00;1.00;;;;;;;;;;4957973;28;20209;-73
2021/12/25 06:16:00;;;;;;;0.70;0.70;;;;;;;;;;4960745;28;20206;-73
2021/12/25 06:18:27;;;;;;;4.37;2.43;;;;;;;;;;4963265;28;20206;-74
2021/12/25 06:20:55;;;;;;;1.70;1.27;;;;;;;;;;4966868;28;20248;-73
2021/12/25 06:23:22;;;;;;;1.07;1.00;;;;;;;;;;4964077;28;20210;-74
2021/12/25 06:25:49;;;;;;;3.47;2.73;;;;;;;;;;4963616;28;20680;-74
2021/12/25 06:28:17;;;;;;;2.77;2.03;;;;;;;;;;4965097;28;20240;-73
2021/12/25 06:30:45;;;;;;;3.67;3.37;;;;;;;;;;4963033;28;20210;-74
2021/12/25 06:33:14;;;;;;;1.03;1.03;;;;;;;;;;4963612;28;20209;-74
2021/12/25 06:35:41;;;;;;;1.70;1.60;;;;;;;;;;4962939;28;20206;-73
2021/12/25 06:38:09;;;;;;;2.43;2.23;;;;;;;;;;4964609;28;20209;-72
2021/12/25 06:40:36;;;;;;;2.60;1.73;;;;;;;;;;4964027;28;20579;-74
2021/12/25 06:43:04;;;;;;;2.50;2.30;;;;;;;;;;4962213;28;20210;-74
2021/12/25 06:45:31;;;;;;;5.03;3.00;;;;;;;;;;4964045;28;20717;-73
2021/12/25 06:47:59;;;;;;;2.17;1.97;;;;;;;;;;4963205;28;20207;-73
2021/12/25 06:50:27;;;;;;;3.30;2.53;;;;;;;;;;4965039;28;20202;-72
2021/12/25 06:52:55;;;;;;;1.97;1.20;;;;;;;;;;4962881;28;20206;-73
2021/12/25 06:55:23;;;;;;;2.20;1.50;;;;;;;;;;4961599;28;20237;-73
2021/12/25 06:57:54;;;;;;;4.10;3.23;;;;;;;;;;4963497;28;20209;-72
2021/12/25 07:00:22;;;;;;;1.13;1.03;;;;;;;;;;4962557;28;20206;-73
2021/12/25 07:02:50;;;;;;;5.70;3.10;;;;;;;;;;4962922;28;20300;-72
2021/12/25 07:05:17;;;;;;;5.80;2.53;;;;;;;;;;4967770;28;20206;-72
2021/12/25 07:07:47;;;;;;;3.00;2.20;;;;;;;;;;4964622;28;20289;-72
2021/12/25 07:10:14;;;;;;;1.20;1.03;;;;;;;;;;4970095;28;20245;-74
2021/12/25 07:12:45;;;;;;;2.97;2.77;;;;;;;;;;4969317;28;20208;-71
2021/12/25 07:15:13;;;;;;;4.80;2.80;;;;;;;;;;4964960;28;20663;-71
2021/12/25 07:17:41;;;;;;;2.80;2.53;;;;;;;;;;4962360;28;20659;-74
2021/12/25 07:20:09;;;;;;;1.43;1.33;;;;;;;;;;4964927;28;20205;-72
2021/12/25 07:22:36;;;;;;;5.70;4.53;;;;;;;;;;4966387;28;20230;-73
2021/12/25 07:25:06;;;;;;;9.40;2.77;;;;;;;;;;4969418;28;20838;-72
2021/12/25 07:27:33;;;;;;;1.47;1.37;;;;;;;;;;4968044;28;20194;-72
2021/12/25 07:30:02;;;;;;;4.90;3.33;;;;;;;;;;4968146;28;20210;-72
2021/12/25 07:32:29;;;;;;;1.23;1.00;;;;;;;;;;4963696;28;20257;-71
2021/12/25 07:34:57;;;;;;;1.33;1.20;;;;;;;;;;4970100;28;20671;-71
2021/12/25 07:37:25;;;;;;;5.23;4.67;;;;;;;;;;4969020;28;20656;-72
2021/12/25 07:39:52;;;;;;;3.37;3.07;;;;;;;;;;4965998;28;20214;-72
2021/12/25 07:42:21;;;;;;;4.20;2.27;;;;;;;;;;4962367;28;20242;-72
2021/12/25 07:44:53;;;;;;;7.17;3.43;;;;;;;;;;4962918;28;20202;-72
2021/12/25 07:47:22;;;;;;;2.80;2.50;;;;;;;;;;4963227;28;20236;-72
2021/12/25 07:49:49;;;;;;;4.40;3.80;;;;;;;;;;4962628;28;20209;-72
2021/12/25 07:52:17;;;;;;;5.53;2.73;;;;;;;;;;4962777;28;20210;-73
2021/12/25 07:54:45;;;;;;;2.47;1.70;;;;;;;;;;4964304;28;20230;-73
2021/12/25 07:57:12;;;;;;;4.27;2.90;;;;;;;;;;4969090;28;20663;-73
2021/12/25 07:59:41;;;;;;;3.07;2.33;;;;;;;;;;4967257;28;20210;-72
2021/12/25 08:02:09;;;;;;;4.37;3.97;;;;;;;;;;4967005;28;20316;-72
2021/12/25 08:04:37;;;;;;;6.37;4.90;;;;;;;;;;4967175;28;20202;-72
2021/12/25 08:07:05;;;;;;;8.63;4.60;;;;;;;;;;4962853;28;20209;-74
2021/12/25 08:09:32;;;;;;;2.10;1.53;;;;;;;;;;4967186;28;20588;-72
2021/12/25 08:12:01;;;;;;;5.50;4.13;;;;;;;;;;4968262;28;20202;-73
2021/12/25 08:14:29;;;;;;;3.03;2.27;;;;;;;;;;4968745;28;20202;-72
2021/12/25 08:16:59;;;;;;;7.00;4.40;;;;;;;;;;4965803;28;20206;-72
2021/12/25 08:19:26;;;;;;;4.70;3.70;;;;;;;;;;4962731;28;20210;-71
2021/12/25 08:21:54;;;;;;;4.07;2.87;;;;;;;;;;4963705;28;20226;-72
2021/12/25 08:24:22;;;;;;;5.87;3.77;;;;;;;;;;4962300;28;20221;-72
2021/12/25 08:26:50;;;;;;;7.90;4.40;;;;;;;;;;4969261;28;20206;-72
2021/12/25 08:29:17;;;;;;;4.43;3.87;;;;;;;;;;4965394;28;20213;-72
2021/12/25 08:31:44;;;;;;;6.10;3.53;;;;;;;;;;4965462;28;20206;-73
2021/12/25 08:34:13;;;;;;;2.33;1.57;;;;;;;;;;4966376;28;20691;-72
2021/12/25 08:36:41;;;;;;;4.23;3.83;;;;;;;;;;4966555;28;20206;-73
2021/12/25 08:39:08;;;;;;;2.43;1.87;;;;;;;;;;4960492;28;20774;-74
2021/12/25 08:41:37;;;;;;;5.60;3.03;;;;;;;;;;4961941;28;20574;-72
2021/12/25 08:44:09;;;;;;;2.93;2.33;;;;;;;;;;4963563;28;20222;-73
2021/12/25 08:46:45;;;;;;;4.73;2.83;;;;;;;;;;4963147;28;20202;-72
2021/12/25 08:49:16;;;;;;;3.37;2.30;;;;;;;;;;4962369;28;20290;-69
2021/12/25 08:51:44;;;;;;;2.53;2.33;;;;;;;;;;4962807;28;20211;-72
2021/12/25 08:54:12;;;;;;;2.47;2.13;;;;;;;;;;4963414;28;20621;-72
2021/12/25 08:56:39;;;;;;;6.30;3.90;;;;;;;;;;4963752;28;20210;-72
2021/12/25 08:59:07;;;;;;;5.87;3.80;;;;;;;;;;4960001;28;20215;-72
2021/12/25 09:01:34;;;;;;;3.03;2.77;;;;;;;;;;4959141;28;20702;-70
2021/12/25 09:04:01;;;;;;;2.33;1.93;;;;;;;;;;4959265;28;20206;-72
2021/12/25 09:06:31;;;;;;;3.20;2.00;;;;;;;;;;4960796;28;20236;-72
2021/12/25 09:08:58;;;;;;;2.10;1.37;;;;;;;;;;4961549;28;20207;-70
2021/12/25 09:11:25;;;;;;;5.30;3.07;;;;;;;;;;4960461;28;20213;-73
2021/12/25 09:13:53;;;;;;;3.60;2.20;;;;;;;;;;4958895;28;20206;-71
2021/12/25 09:16:20;;;;;;;5.80;4.33;;;;;;;;;;4963073;28;20682;-71
2021/12/25 09:18:48;;;;;;;1.73;1.27;;;;;;;;;;4958316;28;20229;-71
2021/12/25 09:21:16;;;;;;;6.13;3.07;;;;;;;;;;4958724;28;20225;-67
2021/12/25 09:23:45;;;;;;;9.90;4.90;;;;;;;;;;4965138;28;20662;-71
2021/12/25 09:26:12;;;;;;;3.10;2.90;;;;;;;;;;4969814;28;20230;-70
2021/12/25 09:28:39;;;;;;;3.97;3.20;;;;;;;;;;4962881;28;20672;-70
2021/12/25 09:31:07;;;;;;;2.53;2.27;;;;;;;;;;4959721;28;20675;-70
2021/12/25 09:33:34;;;;;;;1.50;1.43;;;;;;;;;;4957614;28;20198;-70
2021/12/25 09:36:03;;;;;;;5.87;3.60;;;;;;;;;;4958229;28;20658;-68
2021/12/25 09:38:30;;;;;;;3.77;1.57;;;;;;;;;;4961802;28;20246;-70
2021/12/25 09:41:00;;;;;;;4.77;3.70;;;;;;;;;;4968055;28;20566;-69
2021/12/25 09:43:28;;;;;;;1.33;1.20;;;;;;;;;;4969775;28;20273;-70
2021/12/25 09:45:56;;;;;;;2.93;2.73;;;;;;;;;;4961655;28;20202;-69
2021/12/25 09:48:23;;;;;;;3.53;2.90;;;;;;;;;;4960609;28;20210;-70
2021/12/25 09:50:51;;;;;;;3.63;3.17;;;;;;;;;;4960315;28;20667;-69
2021/12/25 09:53:20;;;;;;;5.77;4.10;;;;;;;;;;4973519;28;20202;-69
2021/12/25 09:55:48;;;;;;;2.27;2.10;;;;;;;;;;4975920;28;20242;-70
2021/12/25 09:58:16;;;;;;;2.50;2.20;;;;;;;;;;4964303;28;20198;-68
2021/12/25 10:00:45;;;;;;;7.93;5.53;;;;;;;;;;4963772;28;20202;-69
2021/12/25 10:03:12;;;;;;;4.37;3.67;;;;;;;;;;4965085;28;20252;-68
2021/12/25 10:05:41;;;;;;;1.80;1.70;;;;;;;;;;4965060;28;20209;-70
2021/12/25 10:08:11;;;;;;;3.07;2.00;;;;;;;;;;4964896;28;20210;-67
2021/12/25 10:10:41;;;;;;;2.13;1.90;;;;;;;;;;4967417;28;20202;-67
2021/12/25 10:13:20;;;;;;;7.93;5.47;;;;;;;;;;4965804;28;20202;-70
2021/12/25 10:15:48;;;;;;;6.93;4.10;;;;;;;;;;4963829;28;20213;-71
2021/12/25 10:18:16;;;;;;;1.67;1.57;;;;;;;;;;4964306;28;20206;-70
2021/12/25 10:20:43;;;;;;;5.83;2.93;;;;;;;;;;4964326;28;22300;-69
2021/12/25 10:23:13;;;;;;;2.40;2.23;;;;;;;;;;4970869;28;20710;-68
2021/12/25 10:25:45;;;;;;;8.93;4.20;;;;;;;;;;4973600;28;20206;-71
2021/12/25 10:28:13;;;;;;;3.37;2.73;;;;;;;;;;4969475;28;20285;-69
2021/12/25 10:30:53;;;;;;;0.97;0.97;;;;;;;;;;4968890;28;20293;-70
2021/12/25 10:33:38;;;;;;;4.23;3.60;;;;;;;;;;4968280;28;20241;-71
2021/12/25 10:36:07;;;;;;;0.47;0.47;;;;;;;;;;4963244;28;20202;-70
2021/12/25 10:38:35;;;;;;;1.53;1.43;;;;;;;;;;4963229;28;20217;-71
2021/12/25 10:41:10;;;;;;;2.70;2.13;;;;;;;;;;4966887;28;20672;-68
2021/12/25 10:43:42;;;;;;;2.67;1.97;;;;;;;;;;4972075;28;20221;-65
2021/12/25 10:46:13;;;;;;;6.13;3.67;;;;;;;;;;4982026;28;20216;-69
2021/12/25 10:48:41;;;;;;;3.30;2.77;;;;;;;;;;4967234;28;20296;-71
2021/12/25 10:51:23;;;;;;;2.40;1.53;;;;;;;;;;4971864;28;20218;-69
2021/12/25 10:53:52;;;;;;;3.20;2.60;;;;;;;;;;4968157;28;20206;-70
2021/12/25 10:56:20;;;;;;;1.93;1.83;;;;;;;;;;4978458;28;20681;-69
2021/12/25 10:58:51;;;;;;;5.37;2.67;;;;;;;;;;4979174;28;20209;-70
2021/12/25 11:01:19;;;;;;;5.77;4.57;;;;;;;;;;4992486;28;20198;-65
2021/12/25 11:03:47;;;;;;;2.63;1.97;;;;;;;;;;4963402;28;20218;-70
2021/12/25 11:06:18;;;;;;;1.13;1.13;;;;;;;;;;4967074;28;20243;-70
2021/12/25 11:08:46;;;;;;;6.93;4.40;;;;;;;;;;4970478;28;20206;-69
2021/12/25 11:11:14;;;;;;;2.30;1.60;;;;;;;;;;4966944;28;20206;-70
2021/12/25 11:13:42;;;;;;;3.20;1.60;;;;;;;;;;4968522;28;20209;-70
2021/12/25 11:16:22;;;;;;;3.50;3.10;;;;;;;;;;4968799;28;20210;-71
2021/12/25 11:18:53;;;;;;;2.23;1.00;;;;;;;;;;4969640;28;20210;-70
2021/12/25 11:21:20;;;;;;;1.93;1.83;;;;;;;;;;4969703;28;20256;-71
2021/12/25 11:23:47;;;;;;;3.67;2.77;;;;;;;;;;4970293;28;20238;-70
2021/12/25 11:26:15;;;;;;;4.43;3.10;;;;;;;;;;4966291;28;20213;-69
2021/12/25 11:28:43;;;;;;;3.07;2.33;;;;;;;;;;4966094;28;20659;-68
2021/12/25 11:31:11;;;;;;;3.03;2.43;;;;;;;;;;4961237;28;20245;-71
2021/12/25 11:33:39;;;;;;;2.30;1.97;;;;;;;;;;4960283;28;20209;-69
2021/12/25 11:36:08;;;;;;;0.50;0.50;;;;;;;;;;4961951;28;20210;-68
2021/12/25 11:38:36;;;;;;;2.83;2.43;;;;;;;;;;4958370;28;20206;-69
2021/12/25 11:41:09;;;;;;;1.70;1.60;;;;;;;;;;4960324;28;20672;-70
2021/12/25 11:43:40;;;;;;;6.23;3.23;;;;;;;;;;4961323;28;20234;-68
2021/12/25 11:46:08;;;;;;;4.03;3.00;;;;;;;;;;4958660;28;20207;-68
2021/12/25 11:48:35;;;;;;;1.20;0.73;;;;;;;;;;4965811;28;20357;-69
2021/12/25 11:51:03;;;;;;;2.47;2.27;;;;;;;;;;4966599;28;20201;-67
2021/12/25 11:53:45;;;;;;;3.37;3.07;;;;;;;;;;4966602;28;20209;-68
2021/12/25 11:58:51;;;;;;;4.03;2.20;;;;;;;;;;4927325;29;20708;-69
2021/12/25 12:01:29;;;;;;;2.10;1.13;;;;;;;;;;4927009;29;20290;-69
2021/12/25 12:03:58;;;;;;;4.47;3.40;;;;;;;;;;4926311;29;22588;-69
2021/12/25 12:06:44;;;;;;;3.07;2.77;;;;;;;;;;4924771;29;20204;-68
2021/12/25 12:09:13;;;;;;;2.67;2.43;;;;;;;;;;4924755;29;20222;-68
2021/12/25 12:11:41;;;;;;;2.87;2.63;;;;;;;;;;4925790;29;20191;-68
2021/12/25 12:14:20;;;;;;;6.57;2.83;;;;;;;;;;4925034;29;20218;-70
2021/12/25 12:16:49;;;;;;;2.27;2.07;;;;;;;;;;4927055;29;20207;-69
2021/12/25 12:19:36;;;;;;;0.87;0.67;;;;;;;;;;4929994;29;20215;-70
2021/12/25 12:22:35;;;;;;;3.87;3.47;;;;;;;;;;4930969;29;20739;-67
2021/12/25 12:25:19;;;;;;;4.37;3.93;;;;;;;;;;4926903;29;20690;-69
2021/12/25 12:27:50;;;;;;;1.67;1.57;;;;;;;;;;4931997;29;20199;-68
2021/12/25 12:30:32;;;;;;;2.50;1.60;;;;;;;;;;4935650;29;20208;-69
2021/12/25 12:33:00;;;;;;;1.10;1.10;;;;;;;;;;4930415;28;20303;-67
2021/12/25 12:35:29;;;;;;;3.20;1.87;;;;;;;;;;4926969;29;20214;-68
2021/12/25 12:38:16;;;;;;;1.97;1.63;;;;;;;;;;4924423;29;20224;-70
2021/12/25 12:40:45;;;;;;;3.37;3.17;;;;;;;;;;4925259;29;20207;-70
2021/12/25 12:43:14;;;;;;;3.60;0.40;;;;;;;;;;4926360;29;20227;-69
2021/12/25 12:45:41;;;;;;;1.30;1.20;;;;;;;;;;4921750;29;20231;-66
2021/12/25 12:48:10;;;;;;;2.53;1.73;;;;;;;;;;4928676;28;20211;-69
2021/12/25 12:50:38;;;;;;;6.03;3.47;;;;;;;;;;4932485;29;20202;-69
2021/12/25 12:53:09;;;;;;;1.67;1.13;;;;;;;;;;4930251;29;20302;-70
2021/12/25 12:55:37;;;;;;;5.03;3.70;;;;;;;;;;4960497;28;20260;-70
2021/12/25 12:58:11;;;;;;;1.23;0.87;;;;;;;;;;4960732;28;20352;-70
2021/12/25 13:00:39;;;;;;;2.53;2.33;;;;;;;;;;4964933;28;20198;-70
2021/12/25 13:03:07;;;;;;;2.67;2.33;;;;;;;;;;4965129;28;20747;-69
2021/12/25 13:05:36;;;;;;;0.40;0.40;;;;;;;;;;4964682;28;20197;-68
2021/12/25 13:08:10;;;;;;;1.80;1.70;;;;;;;;;;4966987;28;20195;-67
2021/12/25 13:10:42;;;;;;;1.43;1.33;;;;;;;;;;4972046;28;20224;-71
2021/12/25 13:13:12;;;;;;;1.67;1.60;;;;;;;;;;4973768;28;20209;-68
2021/12/25 13:15:41;;;;;;;1.60;1.23;;;;;;;;;;4964791;28;20260;-68
2021/12/25 13:18:09;;;;;;;2.50;1.60;;;;;;;;;;4965869;28;20206;-67
2021/12/25 13:20:38;;;;;;;3.00;2.70;;;;;;;;;;4966109;28;20545;-75
2021/12/25 13:23:07;;;;;;;3.17;2.83;;;;;;;;;;4971247;28;20722;-71
2021/12/25 13:25:35;;;;;;;1.73;1.20;;;;;;;;;;4963816;28;20198;-69
2021/12/25 13:28:03;;;;;;;2.13;2.03;;;;;;;;;;4966289;28;20659;-69
2021/12/25 13:30:33;;;;;;;0.00;0.00;;;;;;;;;;4968852;28;20213;-67
2021/12/25 13:33:10;;;;;;;1.53;1.43;;;;;;;;;;4963459;28;20373;-68
2021/12/25 13:35:38;;;;;;;5.50;4.07;;;;;;;;;;4964207;28;20659;-71
2021/12/25 13:38:05;;;;;;;2.33;1.60;;;;;;;;;;4962368;28;20210;-70
2021/12/25 13:40:33;;;;;;;0.63;0.63;;;;;;;;;;4964891;28;20214;-68
2021/12/25 13:43:08;;;;;;;0.63;0.63;;;;;;;;;;4964482;28;20610;-67
2021/12/25 13:45:38;;;;;;;2.77;2.07;;;;;;;;;;4965052;28;20198;-69
2021/12/25 13:48:05;;;;;;;1.13;0.67;;;;;;;;;;4968200;28;20214;-69
2021/12/25 13:50:33;;;;;;;3.23;2.30;;;;;;;;;;4965966;28;20213;-69
2021/12/25 13:53:01;;;;;;;1.83;1.70;;;;;;;;;;4966443;28;20293;-68
2021/12/25 13:55:29;;;;;;;0.20;0.20;;;;;;;;;;4966261;28;20340;-68
2021/12/25 13:57:58;;;;;;;2.30;1.67;;;;;;;;;;4963758;28;20819;-68
2021/12/25 14:00:27;;;;;;;1.03;1.00;;;;;;;;;;4971170;28;20203;-69
2021/12/25 14:02:56;;;;;;;3.97;3.47;;;;;;;;;;4969313;28;20226;-70
2021/12/25 14:05:25;;;;;;;1.87;1.73;;;;;;;;;;4968459;28;20218;-69
2021/12/25 14:07:53;;;;;;;2.10;1.23;;;;;;;;;;4969460;28;20198;-69
2021/12/25 14:10:23;;;;;;;2.70;2.30;;;;;;;;;;4970157;28;20257;-69
2021/12/25 14:12:51;;;;;;;1.00;1.00;;;;;;;;;;4968477;28;20206;-69
2021/12/25 14:15:19;;;;;;;3.00;2.73;;;;;;;;;;4968300;28;20194;-68
2021/12/25 14:17:48;;;;;;;1.83;1.60;;;;;;;;;;4968467;28;20214;-67
2021/12/25 14:20:18;;;;;;;0.97;0.97;;;;;;;;;;4968754;28;20213;-70
2021/12/25 14:22:47;;;;;;;2.73;2.53;;;;;;;;;;4968066;28;20660;-71
2021/12/25 14:25:23;;;;;;;3.57;2.53;;;;;;;;;;4968691;28;20238;-70
2021/12/25 14:28:07;;;;;;;5.30;3.23;;;;;;;;;;4968647;28;20210;-69
2021/12/25 14:30:36;;;;;;;1.97;1.87;;;;;;;;;;4970044;28;20202;-69
2021/12/25 14:33:04;;;;;;;2.20;1.90;;;;;;;;;;4968701;28;20206;-69
2021/12/25 14:35:33;;;;;;;1.27;1.17;;;;;;;;;;4969296;28;20560;-68
2021/12/25 14:38:01;;;;;;;1.60;1.50;;;;;;;;;;4968309;28;20202;-69
2021/12/25 14:40:34;;;;;;;9.50;3.37;;;;;;;;;;4970274;28;20194;-69
2021/12/25 14:43:02;;;;;;;0.77;0.77;;;;;;;;;;4974922;28;20300;-69
2021/12/25 14:45:29;;;;;;;0.93;0.70;;;;;;;;;;4966785;28;20207;-69
2021/12/25 14:47:59;;;;;;;1.20;0.57;;;;;;;;;;4972966;28;20209;-70
2021/12/25 14:50:32;;;;;;;0.50;0.50;;;;;;;;;;4973522;28;20198;-70
2021/12/25 14:53:08;;;;;;;5.20;1.67;;;;;;;;;;4971651;28;20207;-68
2021/12/25 14:55:37;;;;;;;3.43;3.13;;;;;;;;;;4968509;28;20230;-70
2021/12/25 14:58:09;;;;;;;1.43;1.13;;;;;;;;;;4972953;28;20206;-69
2021/12/25 15:00:37;;;;;;;1.13;1.03;;;;;;;;;;4969496;28;20206;-68
2021/12/25 15:03:15;;;;;;;1.40;1.30;;;;;;;;;;4969163;28;20230;-69
2021/12/25 15:05:44;;;;;;;1.40;1.37;;;;;;;;;;4972302;28;20206;-68
2021/12/25 15:08:27;;;;;;;0.40;0.40;;;;;;;;;;4972399;28;20198;-70
2021/12/25 15:10:56;;;;;;;1.27;1.17;;;;;;;;;;4971764;28;20997;-69
2021/12/25 15:13:24;;;;;;;1.23;1.00;;;;;;;;;;4970265;28;20212;-69
2021/12/25 15:15:53;;;;;;;3.27;2.97;;;;;;;;;;4970984;28;20203;-68
2021/12/25 15:18:21;;;;;;;1.90;1.30;;;;;;;;;;4972213;28;20202;-69
2021/12/25 15:20:49;;;;;;;2.33;1.73;;;;;;;;;;4969885;28;20206;-69
2021/12/25 15:23:19;;;;;;;1.03;0.67;;;;;;;;;;4971014;28;20230;-69
2021/12/25 15:25:48;;;;;;;0.30;0.27;;;;;;;;;;4972274;28;20194;-69
2021/12/25 15:28:23;;;;;;;1.70;1.60;;;;;;;;;;4972569;28;20579;-70
2021/12/25 15:30:50;;;;;;;0.97;0.90;;;;;;;;;;4974181;28;20698;-69
2021/12/25 15:33:18;;;;;;;2.63;2.43;;;;;;;;;;4972363;28;20202;-70
2021/12/25 15:35:46;;;;;;;0.47;0.47;;;;;;;;;;4972185;28;20202;-68
2021/12/25 15:38:28;;;;;;;0.80;0.80;;;;;;;;;;4968234;28;20202;-70
2021/12/25 15:40:56;;;;;;;1.03;0.90;;;;;;;;;;4973034;28;20220;-69
2021/12/25 15:43:24;;;;;;;1.07;0.80;;;;;;;;;;4970232;28;20234;-69
2021/12/25 15:45:51;;;;;;;0.70;0.70;;;;;;;;;;4969947;28;20214;-69
2021/12/25 15:48:19;;;;;;;0.33;0.33;;;;;;;;;;4973223;28;20570;-69